createdAt,value
2022-12-11T00:01:50.992Z,98307.81
2022-12-11T00:04:53.488Z,98310.59
2022-12-11T00:07:55.805Z,98323.75
2022-12-11T00:10:58.229Z,98312.56
2022-12-11T00:14:00.330Z,98301.41
2022-12-11T00:17:02.768Z,98306.44
2022-12-11T00:20:05.521Z,98308.81
2022-12-11T00:23:07.714Z,98322.84
2022-12-11T00:26:15.492Z,98318.41
2022-12-11T00:29:17.773Z,98327.28
2022-12-11T00:32:19.834Z,98330.47
2022-12-11T00:35:21.870Z,98332.25
2022-12-11T00:38:24.391Z,98347.03
2022-12-11T00:41:27.376Z,98354.84
2022-12-11T00:44:29.358Z,98373.91
2022-12-11T00:47:31.386Z,98365.25
2022-12-11T00:50:34.162Z,98375.53
2022-12-11T00:53:37.349Z,98382.41
2022-12-11T00:56:39.501Z,98393.75
2022-12-11T00:59:41.899Z,98396.34
2022-12-11T01:02:43.987Z,98400.63
2022-12-11T01:05:54.277Z,98414.59
2022-12-11T01:09:15.460Z,98417.19
2022-12-11T01:12:17.554Z,98429.88
2022-12-11T01:15:21.353Z,98425.69
2022-12-11T01:18:23.551Z,98425.75
2022-12-11T01:21:26.083Z,98429.19
2022-12-11T01:24:28.171Z,98443.12
2022-12-11T01:27:30.252Z,98446.56
2022-12-11T01:30:33.109Z,98434.38
2022-12-11T01:33:35.355Z,98433.72
2022-12-11T01:36:37.467Z,98428.50
2022-12-11T01:39:39.673Z,98425.84
2022-12-11T01:42:41.786Z,98413.91
2022-12-11T01:45:46.360Z,98415.47
2022-12-11T01:48:48.708Z,98413.75
2022-12-11T01:51:57.782Z,98414.47
2022-12-11T01:55:00.213Z,98417.19
2022-12-11T01:58:03.116Z,98411.81
2022-12-11T02:01:05.491Z,98410.06
2022-12-11T02:04:09.614Z,98413.50
2022-12-11T02:07:11.945Z,98403.22
2022-12-11T02:10:14.984Z,98402.91
2022-12-11T02:13:30.641Z,98410.72
2022-12-11T02:16:55.095Z,98412.66
2022-12-11T02:20:27.227Z,98416.16
2022-12-11T02:23:35.126Z,98412.66
2022-12-11T02:26:52.941Z,98417.19
2022-12-11T02:30:10.983Z,98412.72
2022-12-11T02:33:15.775Z,98413.66
2022-12-11T02:36:21.568Z,98411.97
2022-12-11T02:39:27.158Z,98395.66
2022-12-11T02:42:32.590Z,98400.47
2022-12-11T02:45:36.128Z,98391.97
2022-12-11T02:48:40.270Z,98373.81
2022-12-11T02:51:44.385Z,98380.72
2022-12-11T02:54:48.198Z,98388.28
2022-12-11T02:58:04.423Z,98393.50
2022-12-11T03:01:06.605Z,98392.81
2022-12-11T03:04:09.073Z,98388.97
2022-12-11T03:07:17.934Z,98382.16
2022-12-11T03:10:20.360Z,98394.31
2022-12-11T03:13:23.127Z,98402.97
2022-12-11T03:16:37.295Z,98408.13
2022-12-11T03:19:51.471Z,98412.41
2022-12-11T03:23:09.046Z,98415.16
2022-12-11T03:26:13.773Z,98413.34
2022-12-11T03:29:30.270Z,98430.63
2022-12-11T03:32:43.638Z,98432.91
2022-12-11T03:35:51.739Z,98429.72
2022-12-11T03:38:59.163Z,98430.47
2022-12-11T03:42:08.452Z,98412.84
2022-12-11T03:45:12.199Z,98427.38
2022-12-11T03:48:16.163Z,98420.34
2022-12-11T03:51:19.178Z,98423.94
2022-12-11T03:54:21.567Z,98420.50
2022-12-11T03:57:26.327Z,98431.19
2022-12-11T04:00:29.401Z,98426.91
2022-12-11T04:03:31.458Z,98414.66
2022-12-11T04:06:33.528Z,98422.69
2022-12-11T04:09:36.085Z,98416.59
2022-12-11T04:12:38.257Z,98433.06
2022-12-11T04:15:40.894Z,98423.31
2022-12-11T04:19:01.862Z,98425.50
2022-12-11T04:22:22.861Z,98428.03
2022-12-11T04:25:24.911Z,98424.31
2022-12-11T04:28:26.917Z,98433.16
2022-12-11T04:31:30.148Z,98446.94
2022-12-11T04:34:32.229Z,98445.25
2022-12-11T04:37:35.785Z,98447.00
2022-12-11T04:40:37.905Z,98461.13
2022-12-11T04:43:40.601Z,98472.72
2022-12-11T04:46:42.646Z,98478.84
2022-12-11T04:49:44.856Z,98474.63
2022-12-11T04:52:46.864Z,98485.69
2022-12-11T04:55:48.970Z,98481.53
2022-12-11T04:58:50.979Z,98504.81
2022-12-11T05:01:53.132Z,98499.53
2022-12-11T05:04:55.206Z,98493.41
2022-12-11T05:07:57.568Z,98490.06
2022-12-11T05:11:01.480Z,98528.19
2022-12-11T05:14:03.768Z,98517.84
2022-12-11T05:17:05.766Z,98517.94
2022-12-11T05:20:09.623Z,98512.63
2022-12-11T05:23:11.991Z,98519.88
2022-12-11T05:26:17.873Z,98540.69
2022-12-11T05:29:20.109Z,98542.91
2022-12-11T05:32:22.164Z,98550.88
2022-12-11T05:35:24.178Z,98553.72
2022-12-11T05:38:26.645Z,98554.81
2022-12-11T05:41:30.726Z,98559.16
2022-12-11T05:44:32.764Z,98558.09
2022-12-11T05:47:34.874Z,98557.47
2022-12-11T05:50:37.018Z,98569.88
2022-12-11T05:53:40.153Z,98577.03
2022-12-11T05:56:42.286Z,98572.41
2022-12-11T05:59:45.416Z,98570.97
2022-12-11T06:02:47.728Z,98576.41
2022-12-11T06:05:49.878Z,98578.63
2022-12-11T06:08:53.811Z,98598.72
2022-12-11T06:11:55.839Z,98607.31
2022-12-11T06:14:58.292Z,98600.75
2022-12-11T06:18:00.446Z,98577.97
2022-12-11T06:21:02.664Z,98600.84
2022-12-11T06:24:05.780Z,98595.78
2022-12-11T06:27:07.859Z,98595.69
2022-12-11T06:30:10.659Z,98604.69
2022-12-11T06:33:13.635Z,98609.59
2022-12-11T06:36:18.500Z,98617.56
2022-12-11T06:39:20.517Z,98620.09
2022-12-11T06:42:22.822Z,98618.31
2022-12-11T06:45:24.941Z,98631.44
2022-12-11T06:48:27.055Z,98631.81
2022-12-11T06:51:29.071Z,98651.87
2022-12-11T06:54:31.290Z,98659.56
2022-12-11T06:57:34.607Z,98669.06
2022-12-11T07:00:38.305Z,98672.28
2022-12-11T07:03:40.304Z,98682.84
2022-12-11T07:06:42.433Z,98689.00
2022-12-11T07:09:44.751Z,98686.56
2022-12-11T07:12:46.832Z,98691.38
2022-12-11T07:15:48.871Z,98686.00
2022-12-11T07:18:51.669Z,98706.78
2022-12-11T07:21:53.744Z,98691.06
2022-12-11T07:24:55.817Z,98695.28
2022-12-11T07:27:57.900Z,98705.87
2022-12-11T07:31:00.200Z,98706.78
2022-12-11T07:34:06.151Z,98694.66
2022-12-11T07:37:08.180Z,98695.34
2022-12-11T07:40:10.657Z,98703.16
2022-12-11T07:43:12.958Z,98702.31
2022-12-11T07:46:22.522Z,98719.69
2022-12-11T07:49:24.660Z,98730.84
2022-12-11T07:52:26.628Z,98725.72
2022-12-11T07:55:28.753Z,98724.91
2022-12-11T07:58:30.938Z,98736.91
2022-12-11T08:01:38.385Z,98732.72
2022-12-11T08:04:40.611Z,98740.44
2022-12-11T08:07:42.690Z,98758.63
2022-12-11T08:10:45.353Z,98764.59
2022-12-11T08:13:47.851Z,98764.69
2022-12-11T08:16:49.922Z,98769.97
2022-12-11T08:19:52.082Z,98768.13
2022-12-11T08:22:58.894Z,98756.78
2022-12-11T08:26:05.881Z,98763.66
2022-12-11T08:29:08.030Z,98779.41
2022-12-11T08:32:12.387Z,98783.63
2022-12-11T08:35:14.774Z,98784.53
2022-12-11T08:38:20.957Z,98789.37
2022-12-11T08:41:30.358Z,98789.94
2022-12-11T08:44:32.419Z,98775.06
2022-12-11T08:47:34.538Z,98772.16
2022-12-11T08:50:40.001Z,98771.75
2022-12-11T08:53:42.461Z,98763.09
2022-12-11T08:56:44.492Z,98765.97
2022-12-11T08:59:46.762Z,98761.81
2022-12-11T09:02:49.051Z,98773.97
2022-12-11T09:05:51.443Z,98784.78
2022-12-11T09:08:54.726Z,98766.50
2022-12-11T09:11:56.848Z,98763.47
2022-12-11T09:14:58.928Z,98757.63
2022-12-11T09:18:00.929Z,98756.53
2022-12-11T09:21:09.187Z,98757.31
2022-12-11T09:24:12.986Z,98748.12
2022-12-11T09:27:15.076Z,98755.78
2022-12-11T09:30:17.219Z,98738.72
2022-12-11T09:33:19.453Z,98744.78
2022-12-11T09:36:21.483Z,98760.03
2022-12-11T09:39:23.459Z,98745.13
2022-12-11T09:42:38.611Z,98746.06
2022-12-11T09:45:40.672Z,98755.88
2022-12-11T09:48:46.688Z,98756.94
2022-12-11T09:52:02.194Z,98765.28
2022-12-11T09:55:16.857Z,98767.66
2022-12-11T09:58:39.725Z,98774.09
2022-12-11T10:02:14.813Z,98756.56
2022-12-11T10:05:16.840Z,98755.84
2022-12-11T10:08:37.548Z,98749.50
2022-12-11T10:12:00.573Z,98769.91
2022-12-11T10:15:35.577Z,98754.59
2022-12-11T10:18:43.106Z,98757.00
2022-12-11T10:21:47.763Z,98751.28
2022-12-11T10:25:12.726Z,98729.97
2022-12-11T10:28:17.788Z,98744.81
2022-12-11T10:31:39.237Z,98723.69
2022-12-11T10:34:47.815Z,98749.19
2022-12-11T10:37:50.661Z,98742.53
2022-12-11T10:40:57.479Z,98744.03
2022-12-11T10:44:01.985Z,98752.03
2022-12-11T10:47:15.300Z,98752.94
2022-12-11T10:50:25.730Z,98750.59
2022-12-11T10:53:29.254Z,98753.00
2022-12-11T10:56:34.461Z,98758.50
2022-12-11T10:59:41.126Z,98751.28
2022-12-11T11:02:46.093Z,98737.81
2022-12-11T11:05:49.673Z,98747.16
2022-12-11T11:09:00.751Z,98745.78
2022-12-11T11:12:07.874Z,98755.25
2022-12-11T11:15:15.393Z,98743.66
2022-12-11T11:18:26.666Z,98748.84
2022-12-11T11:21:30.291Z,98749.13
2022-12-11T11:24:43.644Z,98745.19
2022-12-11T11:27:55.335Z,98748.34
2022-12-11T11:31:07.731Z,98738.91
2022-12-11T11:34:19.892Z,98741.31
2022-12-11T11:37:32.047Z,98738.25
2022-12-11T11:40:50.352Z,98736.50
2022-12-11T11:43:57.718Z,98729.13
2022-12-11T11:47:11.485Z,98720.91
2022-12-11T11:50:19.237Z,98722.69
2022-12-11T11:53:33.209Z,98726.16
2022-12-11T11:56:37.802Z,98710.94
2022-12-11T11:59:45.017Z,98718.66
2022-12-11T12:02:50.866Z,98722.03
2022-12-11T12:06:04.353Z,98726.88
2022-12-11T12:09:26.440Z,98735.25
2022-12-11T12:12:36.755Z,98735.84
2022-12-11T12:16:43.733Z,98719.31
2022-12-11T12:19:50.801Z,98723.75
2022-12-11T12:22:55.727Z,98720.81
2022-12-11T12:26:09.563Z,98735.69
2022-12-11T12:29:21.044Z,98734.22
2022-12-11T12:32:37.673Z,98732.41
2022-12-11T12:35:56.092Z,98732.06
2022-12-11T12:39:02.941Z,98732.00
2022-12-11T12:42:54.612Z,98737.19
2022-12-11T12:46:09.635Z,98721.59
2022-12-11T12:49:17.667Z,98742.59
2022-12-11T12:52:26.502Z,98741.13
2022-12-11T12:55:31.979Z,98747.88
2022-12-11T12:58:34.159Z,98753.13
2022-12-11T13:01:38.907Z,98757.06
2022-12-11T13:04:59.171Z,98764.19
2022-12-11T13:08:04.049Z,98772.72
2022-12-11T13:11:09.380Z,98776.22
2022-12-11T13:14:14.365Z,98785.84
2022-12-11T13:17:22.301Z,98779.28
2022-12-11T13:20:28.412Z,98779.34
2022-12-11T13:23:35.075Z,98777.41
2022-12-11T13:26:37.176Z,98780.69
2022-12-11T13:29:41.979Z,98784.06
2022-12-11T13:33:23.151Z,98786.59
2022-12-11T13:36:32.025Z,98795.34
2022-12-11T13:39:40.479Z,98796.56
2022-12-11T13:42:57.376Z,98800.91
2022-12-11T13:46:05.440Z,98796.06
2022-12-11T13:49:18.658Z,98799.69
2022-12-11T13:52:26.263Z,98811.31
2022-12-11T13:55:31.662Z,98812.78
2022-12-11T13:58:37.926Z,98800.97
2022-12-11T14:01:40.479Z,98804.66
2022-12-11T14:04:43.219Z,98810.94
2022-12-11T14:07:55.121Z,98827.00
2022-12-11T14:10:57.726Z,98834.03
2022-12-11T14:14:03.612Z,98835.37
2022-12-11T14:17:05.772Z,98840.13
2022-12-11T14:20:19.229Z,98847.16
2022-12-11T14:23:27.042Z,98849.22
2022-12-11T14:26:30.458Z,98864.97
2022-12-11T14:29:35.405Z,98863.09
2022-12-11T14:32:45.171Z,98861.81
2022-12-11T14:35:48.832Z,98856.75
2022-12-11T14:39:17.314Z,98855.25
2022-12-11T14:42:27.535Z,98851.13
2022-12-11T14:45:41.784Z,98868.59
2022-12-11T14:49:00.762Z,98862.84
2022-12-11T14:52:05.174Z,98864.75
2022-12-11T14:55:14.035Z,98871.16
2022-12-11T14:58:27.386Z,98873.00
2022-12-11T15:01:34.256Z,98873.91
2022-12-11T15:04:36.930Z,98879.19
2022-12-11T15:07:40.611Z,98885.38
2022-12-11T15:11:11.652Z,98893.19
2022-12-11T15:14:16.507Z,98892.44
2022-12-11T15:17:19.893Z,98888.34
2022-12-11T15:20:29.603Z,98877.84
2022-12-11T15:23:31.863Z,98869.47
2022-12-11T15:26:40.449Z,98866.94
2022-12-11T15:29:43.030Z,98886.09
2022-12-11T15:32:45.510Z,98880.91
2022-12-11T15:36:00.999Z,98878.44
2022-12-11T15:39:05.725Z,98885.38
2022-12-11T15:42:09.141Z,98883.78
2022-12-11T15:45:22.866Z,98892.50
2022-12-11T15:48:25.018Z,98883.06
2022-12-11T15:51:27.984Z,98880.53
2022-12-11T15:54:30.781Z,98878.06
2022-12-11T15:57:33.447Z,98884.81
2022-12-11T16:00:36.181Z,98891.03
2022-12-11T16:03:38.542Z,98891.88
2022-12-11T16:06:45.638Z,98887.63
2022-12-11T16:09:48.579Z,98888.47
2022-12-11T16:12:51.088Z,98883.50
2022-12-11T16:15:54.622Z,98889.59
2022-12-11T16:18:57.836Z,98902.69
2022-12-11T16:22:00.359Z,98907.06
2022-12-11T16:25:02.839Z,98905.44
2022-12-11T16:28:05.793Z,98896.78
2022-12-11T16:31:16.113Z,98902.13
2022-12-11T16:34:18.919Z,98908.31
2022-12-11T16:37:23.326Z,98885.09
2022-12-11T16:40:26.903Z,98905.06
2022-12-11T16:43:30.487Z,98916.59
2022-12-11T16:46:32.857Z,98921.94
2022-12-11T16:49:35.668Z,98926.28
2022-12-11T16:52:38.028Z,98928.25
2022-12-11T16:55:40.845Z,98934.44
2022-12-11T16:58:43.047Z,98928.53
2022-12-11T17:01:45.935Z,98936.53
2022-12-11T17:04:53.671Z,98941.09
2022-12-11T17:07:57.155Z,98944.66
2022-12-11T17:10:59.325Z,98937.75
2022-12-11T17:14:01.667Z,98943.16
2022-12-11T17:17:04.018Z,98944.84
2022-12-11T17:20:07.459Z,98938.94
2022-12-11T17:23:13.611Z,98937.31
2022-12-11T17:26:17.622Z,98939.94
2022-12-11T17:29:21.556Z,98943.34
2022-12-11T17:32:23.670Z,98942.75
2022-12-11T17:35:26.661Z,98960.12
2022-12-11T17:38:31.441Z,98978.41
2022-12-11T17:41:34.288Z,98980.13
2022-12-11T17:44:36.904Z,98985.25
2022-12-11T17:47:39.709Z,98984.53
2022-12-11T17:50:43.609Z,98984.66
2022-12-11T17:53:46.029Z,98985.56
2022-12-11T17:56:48.971Z,98983.81
2022-12-11T17:59:54.809Z,98978.72
2022-12-11T18:02:57.428Z,98985.59
2022-12-11T18:06:05.373Z,98979.94
2022-12-11T18:09:08.667Z,98996.22
2022-12-11T18:12:11.479Z,99000.63
2022-12-11T18:15:14.526Z,99000.69
2022-12-11T18:18:16.832Z,99004.97
2022-12-11T18:21:22.994Z,99009.47
2022-12-11T18:24:31.746Z,99006.06
2022-12-11T18:27:34.456Z,99003.53
2022-12-11T18:30:39.466Z,98995.84
2022-12-11T18:33:43.987Z,99003.66
2022-12-11T18:36:46.633Z,99002.94
2022-12-11T18:39:49.587Z,99002.19
2022-12-11T18:42:52.434Z,98999.78
2022-12-11T18:45:56.029Z,99016.34
2022-12-11T18:48:58.855Z,99008.72
2022-12-11T18:52:02.012Z,99003.81
2022-12-11T18:55:05.911Z,99014.28
2022-12-11T18:58:08.627Z,99005.66
2022-12-11T19:01:16.631Z,99019.69
2022-12-11T19:04:19.990Z,99021.50
2022-12-11T19:07:23.143Z,99019.09
2022-12-11T19:10:30.510Z,99027.81
2022-12-11T19:13:34.169Z,99026.19
2022-12-11T19:16:43.566Z,99034.78
2022-12-11T19:19:47.967Z,99032.41
2022-12-11T19:22:51.618Z,99038.44
2022-12-11T19:29:52.530Z,99049.16
2022-12-11T19:33:00.375Z,99057.09
2022-12-11T19:36:15.382Z,99045.06
2022-12-11T19:39:19.883Z,99053.94
2022-12-11T19:42:25.564Z,99037.50
2022-12-11T19:45:29.992Z,99047.31
2022-12-11T19:48:41.555Z,99041.41
2022-12-11T19:51:45.556Z,99058.09
2022-12-11T19:54:51.404Z,99053.84
2022-12-11T19:57:55.431Z,99047.91
2022-12-11T20:01:02.082Z,99053.25
2022-12-11T20:04:08.483Z,99068.06
2022-12-11T20:07:11.723Z,99064.66
2022-12-11T20:10:14.575Z,99068.16
2022-12-11T20:13:18.426Z,99063.91
2022-12-11T20:16:39.139Z,99047.38
2022-12-11T20:19:45.494Z,99054.34
2022-12-11T20:22:53.248Z,99052.62
2022-12-11T20:25:59.007Z,99055.31
2022-12-11T20:29:05.665Z,99072.50
2022-12-11T20:32:08.515Z,99069.09
2022-12-11T20:35:13.299Z,99065.66
2022-12-11T20:38:16.650Z,99071.75
2022-12-11T20:41:23.955Z,99083.84
2022-12-11T20:44:26.750Z,99094.25
2022-12-11T20:47:29.701Z,99089.06
2022-12-11T20:50:33.967Z,99090.81
2022-12-11T20:53:37.988Z,99087.41
2022-12-11T20:56:40.852Z,99073.56
2022-12-11T20:59:45.840Z,99058.13
2022-12-11T21:02:50.775Z,99069.34
2022-12-11T21:05:53.602Z,99070.13
2022-12-11T21:08:56.240Z,99064.06
2022-12-11T21:12:03.436Z,99068.31
2022-12-11T21:15:06.561Z,99064.81
2022-12-11T21:18:09.190Z,99071.63
2022-12-11T21:21:11.465Z,99064.72
2022-12-11T21:24:19.555Z,99065.50
2022-12-11T21:27:25.056Z,99065.50
2022-12-11T21:30:32.053Z,99067.25
2022-12-11T21:33:34.987Z,99076.72
2022-12-11T21:36:37.178Z,99082.84
2022-12-11T21:39:39.634Z,99080.16
2022-12-11T21:42:41.803Z,99085.38
2022-12-11T21:46:01.540Z,99092.31
2022-12-11T21:49:04.400Z,99085.44
2022-12-11T21:52:08.491Z,99096.66
2022-12-11T21:55:12.184Z,99095.81
2022-12-11T21:58:14.616Z,99101.06
2022-12-11T22:01:26.567Z,99114.91
2022-12-11T22:04:28.729Z,99100.09
2022-12-11T22:07:33.803Z,99106.19
2022-12-11T22:10:44.611Z,99102.06
2022-12-11T22:13:46.796Z,99109.81
2022-12-11T22:16:48.845Z,99115.78
2022-12-11T22:19:52.160Z,99113.19
2022-12-11T22:22:54.191Z,99105.41
2022-12-11T22:25:56.510Z,99108.81
2022-12-11T22:28:58.706Z,99112.31
2022-12-11T22:32:00.688Z,99111.47
2022-12-11T22:35:03.140Z,99105.38
2022-12-11T22:38:05.644Z,99110.56
2022-12-11T22:41:20.566Z,99114.00
2022-12-11T22:44:23.934Z,99117.41
2022-12-11T22:47:26.028Z,99129.56
2022-12-11T22:50:28.448Z,99132.16
2022-12-11T22:53:30.420Z,99128.66
2022-12-11T22:56:32.452Z,99119.03
2022-12-11T22:59:35.309Z,99124.28
2022-12-11T23:02:38.613Z,99135.56
2022-12-11T23:05:41.175Z,99140.78
2022-12-11T23:08:44.119Z,99139.03
2022-12-11T23:11:46.275Z,99146.75
2022-12-11T23:14:49.452Z,99144.16
2022-12-11T23:17:51.522Z,99139.91
2022-12-11T23:20:53.877Z,99143.31
2022-12-11T23:23:57.251Z,99146.72
2022-12-11T23:27:00.527Z,99137.16
2022-12-11T23:30:02.557Z,99134.56
2022-12-11T23:33:06.757Z,99126.78
2022-12-11T23:36:09.867Z,99122.44
2022-12-11T23:39:11.954Z,99115.53
2022-12-11T23:42:14.324Z,99114.69
2022-12-11T23:45:16.483Z,99117.31
2022-12-11T23:48:18.708Z,99113.06
2022-12-11T23:51:23.429Z,99115.69
2022-12-11T23:54:25.605Z,99118.28
2022-12-11T23:57:28.093Z,99125.19
